sensor_id;sensor_type;location;lat;lon;timestamp;P1;durP1;ratioP1;P2;durP2;ratioP2
54193;SDS011;40102;50.906;6.972;2023-06-04T00:00:24;1.13;;;0.80;;
54193;SDS011;40102;50.906;6.972;2023-06-04T00:02:50;1.50;;;0.85;;
54193;SDS011;40102;50.906;6.972;2023-06-04T00:05:15;3.03;;;0.80;;
54193;SDS011;40102;50.906;6.972;2023-06-04T00:07:41;3.00;;;0.93;;
54193;SDS011;40102;50.906;6.972;2023-06-04T00:10:06;1.23;;;0.85;;
54193;SDS011;40102;50.906;6.972;2023-06-04T00:12:32;1.70;;;1.08;;
54193;SDS011;40102;50.906;6.972;2023-06-04T00:14:57;2.67;;;1.02;;
54193;SDS011;40102;50.906;6.972;2023-06-04T00:17:23;1.23;;;0.75;;
54193;SDS011;40102;50.906;6.972;2023-06-04T00:19:48;2.05;;;0.98;;
54193;SDS011;40102;50.906;6.972;2023-06-04T00:22:13;0.98;;;0.70;;
54193;SDS011;40102;50.906;6.972;2023-06-04T00:24:39;1.48;;;0.88;;
54193;SDS011;40102;50.906;6.972;2023-06-04T00:27:08;0.90;;;0.75;;
54193;SDS011;40102;50.906;6.972;2023-06-04T00:29:34;0.93;;;0.77;;
54193;SDS011;40102;50.906;6.972;2023-06-04T00:31:59;1.00;;;0.75;;
54193;SDS011;40102;50.906;6.972;2023-06-04T00:34:25;2.08;;;0.90;;
54193;SDS011;40102;50.906;6.972;2023-06-04T00:36:50;1.38;;;0.70;;
54193;SDS011;40102;50.906;6.972;2023-06-04T00:39:23;2.35;;;0.90;;
54193;SDS011;40102;50.906;6.972;2023-06-04T00:42:18;4.18;;;0.98;;
54193;SDS011;40102;50.906;6.972;2023-06-04T00:44:54;2.50;;;1.02;;
54193;SDS011;40102;50.906;6.972;2023-06-04T00:47:23;1.30;;;0.80;;
54193;SDS011;40102;50.906;6.972;2023-06-04T00:49:49;2.55;;;1.15;;
54193;SDS011;40102;50.906;6.972;2023-06-04T00:52:15;1.00;;;0.90;;
54193;SDS011;40102;50.906;6.972;2023-06-04T00:54:41;1.50;;;1.00;;
54193;SDS011;40102;50.906;6.972;2023-06-04T00:57:09;1.45;;;0.85;;
54193;SDS011;40102;50.906;6.972;2023-06-04T00:59:38;1.20;;;0.90;;
54193;SDS011;40102;50.906;6.972;2023-06-04T01:02:08;1.35;;;0.93;;
54193;SDS011;40102;50.906;6.972;2023-06-04T01:04:42;1.27;;;0.90;;
54193;SDS011;40102;50.906;6.972;2023-06-04T01:07:17;1.33;;;1.00;;
54193;SDS011;40102;50.906;6.972;2023-06-04T01:09:44;1.30;;;0.88;;
54193;SDS011;40102;50.906;6.972;2023-06-04T01:12:10;1.40;;;1.10;;
54193;SDS011;40102;50.906;6.972;2023-06-04T01:14:36;1.90;;;1.20;;
54193;SDS011;40102;50.906;6.972;2023-06-04T01:25:53;2.08;;;1.30;;
54193;SDS011;40102;50.906;6.972;2023-06-04T01:27:58;2.42;;;0.93;;
54193;SDS011;40102;50.906;6.972;2023-06-04T01:30:28;2.10;;;1.20;;
54193;SDS011;40102;50.906;6.972;2023-06-04T01:32:57;1.58;;;1.20;;
54193;SDS011;40102;50.906;6.972;2023-06-04T01:35:22;1.58;;;1.15;;
54193;SDS011;40102;50.906;6.972;2023-06-04T01:37:48;2.45;;;1.00;;
54193;SDS011;40102;50.906;6.972;2023-06-04T01:40:14;2.03;;;1.08;;
54193;SDS011;40102;50.906;6.972;2023-06-04T01:42:43;1.63;;;1.00;;
54193;SDS011;40102;50.906;6.972;2023-06-04T01:45:09;2.33;;;1.30;;
54193;SDS011;40102;50.906;6.972;2023-06-04T01:47:35;1.98;;;1.30;;
54193;SDS011;40102;50.906;6.972;2023-06-04T01:50:01;2.00;;;1.30;;
54193;SDS011;40102;50.906;6.972;2023-06-04T01:52:34;1.80;;;1.05;;
54193;SDS011;40102;50.906;6.972;2023-06-04T01:55:03;3.60;;;1.43;;
54193;SDS011;40102;50.906;6.972;2023-06-04T01:57:29;1.60;;;1.10;;
54193;SDS011;40102;50.906;6.972;2023-06-04T01:59:55;1.65;;;1.25;;
54193;SDS011;40102;50.906;6.972;2023-06-04T02:02:21;1.70;;;1.15;;
54193;SDS011;40102;50.906;6.972;2023-06-04T02:04:47;3.33;;;1.30;;
54193;SDS011;40102;50.906;6.972;2023-06-04T02:07:12;2.38;;;1.30;;
54193;SDS011;40102;50.906;6.972;2023-06-04T02:09:47;1.75;;;1.30;;
54193;SDS011;40102;50.906;6.972;2023-06-04T02:12:13;3.88;;;1.50;;
54193;SDS011;40102;50.906;6.972;2023-06-04T02:14:39;1.45;;;1.10;;
54193;SDS011;40102;50.906;6.972;2023-06-04T02:17:06;1.83;;;1.20;;
54193;SDS011;40102;50.906;6.972;2023-06-04T02:19:37;2.95;;;1.30;;
54193;SDS011;40102;50.906;6.972;2023-06-04T02:22:09;1.67;;;1.27;;
54193;SDS011;40102;50.906;6.972;2023-06-04T02:24:41;3.40;;;1.73;;
54193;SDS011;40102;50.906;6.972;2023-06-04T02:27:07;1.87;;;1.37;;
54193;SDS011;40102;50.906;6.972;2023-06-04T02:29:33;3.53;;;1.50;;
54193;SDS011;40102;50.906;6.972;2023-06-04T02:31:58;1.88;;;1.20;;
54193;SDS011;40102;50.906;6.972;2023-06-04T02:34:24;1.58;;;1.20;;
54193;SDS011;40102;50.906;6.972;2023-06-04T02:36:50;2.35;;;1.40;;
54193;SDS011;40102;50.906;6.972;2023-06-04T02:39:16;1.80;;;1.30;;
54193;SDS011;40102;50.906;6.972;2023-06-04T02:41:44;2.28;;;1.20;;
54193;SDS011;40102;50.906;6.972;2023-06-04T02:44:10;3.50;;;1.60;;
54193;SDS011;40102;50.906;6.972;2023-06-04T02:46:36;3.70;;;1.50;;
54193;SDS011;40102;50.906;6.972;2023-06-04T02:49:02;1.85;;;1.40;;
54193;SDS011;40102;50.906;6.972;2023-06-04T02:51:27;1.50;;;1.30;;
54193;SDS011;40102;50.906;6.972;2023-06-04T02:53:53;3.40;;;1.80;;
54193;SDS011;40102;50.906;6.972;2023-06-04T02:56:18;1.92;;;1.42;;
54193;SDS011;40102;50.906;6.972;2023-06-04T02:58:48;3.03;;;1.50;;
54193;SDS011;40102;50.906;6.972;2023-06-04T03:01:24;2.38;;;1.48;;
54193;SDS011;40102;50.906;6.972;2023-06-04T03:03:51;2.15;;;1.55;;
54193;SDS011;40102;50.906;6.972;2023-06-04T03:06:17;1.80;;;1.30;;
54193;SDS011;40102;50.906;6.972;2023-06-04T03:08:45;2.20;;;1.40;;
54193;SDS011;40102;50.906;6.972;2023-06-04T03:11:11;2.53;;;1.60;;
54193;SDS011;40102;50.906;6.972;2023-06-04T03:13:37;1.67;;;1.27;;
54193;SDS011;40102;50.906;6.972;2023-06-04T03:16:03;3.30;;;1.60;;
54193;SDS011;40102;50.906;6.972;2023-06-04T03:18:28;1.98;;;1.52;;
54193;SDS011;40102;50.906;6.972;2023-06-04T03:20:54;2.88;;;1.70;;
54193;SDS011;40102;50.906;6.972;2023-06-04T03:23:22;2.35;;;1.48;;
54193;SDS011;40102;50.906;6.972;2023-06-04T03:25:48;2.10;;;1.40;;
54193;SDS011;40102;50.906;6.972;2023-06-04T03:28:13;1.88;;;1.52;;
54193;SDS011;40102;50.906;6.972;2023-06-04T03:30:39;3.90;;;1.60;;
54193;SDS011;40102;50.906;6.972;2023-06-04T03:33:05;2.55;;;1.45;;
54193;SDS011;40102;50.906;6.972;2023-06-04T03:35:31;2.97;;;1.50;;
54193;SDS011;40102;50.906;6.972;2023-06-04T03:37:56;3.78;;;1.60;;
54193;SDS011;40102;50.906;6.972;2023-06-04T03:40:22;2.15;;;1.60;;
54193;SDS011;40102;50.906;6.972;2023-06-04T03:42:50;2.92;;;1.67;;
54193;SDS011;40102;50.906;6.972;2023-06-04T03:45:16;1.90;;;1.30;;
54193;SDS011;40102;50.906;6.972;2023-06-04T03:47:41;3.78;;;1.70;;
54193;SDS011;40102;50.906;6.972;2023-06-04T03:50:06;12.90;;;8.02;;
54193;SDS011;40102;50.906;6.972;2023-06-04T03:52:32;10.07;;;6.60;;
54193;SDS011;40102;50.906;6.972;2023-06-04T03:54:58;5.78;;;3.63;;
54193;SDS011;40102;50.906;6.972;2023-06-04T03:57:23;2.97;;;2.35;;
54193;SDS011;40102;50.906;6.972;2023-06-04T03:59:49;3.03;;;2.10;;
54193;SDS011;40102;50.906;6.972;2023-06-04T04:02:15;1.73;;;1.45;;
54193;SDS011;40102;50.906;6.972;2023-06-04T04:04:42;3.22;;;1.73;;
54193;SDS011;40102;50.906;6.972;2023-06-04T04:07:07;1.92;;;1.58;;
54193;SDS011;40102;50.906;6.972;2023-06-04T04:09:34;2.35;;;1.48;;
54193;SDS011;40102;50.906;6.972;2023-06-04T04:11:59;1.90;;;1.40;;
54193;SDS011;40102;50.906;6.972;2023-06-04T04:14:25;2.75;;;1.60;;
54193;SDS011;40102;50.906;6.972;2023-06-04T04:16:50;1.88;;;1.52;;
54193;SDS011;40102;50.906;6.972;2023-06-04T04:19:15;2.08;;;1.20;;
54193;SDS011;40102;50.906;6.972;2023-06-04T04:21:41;1.83;;;1.33;;
54193;SDS011;40102;50.906;6.972;2023-06-04T04:24:07;2.58;;;1.40;;
54193;SDS011;40102;50.906;6.972;2023-06-04T04:26:34;2.40;;;1.50;;
54193;SDS011;40102;50.906;6.972;2023-06-04T04:28:59;2.03;;;1.20;;
54193;SDS011;40102;50.906;6.972;2023-06-04T04:31:28;3.88;;;1.70;;
54193;SDS011;40102;50.906;6.972;2023-06-04T04:33:55;2.75;;;1.45;;
54193;SDS011;40102;50.906;6.972;2023-06-04T04:36:21;2.65;;;1.45;;
54193;SDS011;40102;50.906;6.972;2023-06-04T04:38:46;2.10;;;1.27;;
54193;SDS011;40102;50.906;6.972;2023-06-04T04:41:19;4.13;;;1.60;;
54193;SDS011;40102;50.906;6.972;2023-06-04T04:43:46;2.67;;;1.27;;
54193;SDS011;40102;50.906;6.972;2023-06-04T04:46:11;1.73;;;1.10;;
54193;SDS011;40102;50.906;6.972;2023-06-04T04:48:36;1.60;;;1.20;;
54193;SDS011;40102;50.906;6.972;2023-06-04T04:51:03;1.65;;;1.15;;
54193;SDS011;40102;50.906;6.972;2023-06-04T04:53:29;1.50;;;1.10;;
54193;SDS011;40102;50.906;6.972;2023-06-04T04:55:54;3.47;;;1.30;;
54193;SDS011;40102;50.906;6.972;2023-06-04T04:58:20;1.88;;;1.30;;
54193;SDS011;40102;50.906;6.972;2023-06-04T05:00:45;2.03;;;1.30;;
54193;SDS011;40102;50.906;6.972;2023-06-04T05:03:12;1.85;;;1.17;;
54193;SDS011;40102;50.906;6.972;2023-06-04T05:05:38;1.67;;;1.10;;
54193;SDS011;40102;50.906;6.972;2023-06-04T05:08:03;4.60;;;1.50;;
54193;SDS011;40102;50.906;6.972;2023-06-04T05:10:29;2.50;;;1.30;;
54193;SDS011;40102;50.906;6.972;2023-06-04T05:12:58;1.88;;;1.23;;
54193;SDS011;40102;50.906;6.972;2023-06-04T05:15:25;1.60;;;1.20;;
54193;SDS011;40102;50.906;6.972;2023-06-04T05:17:51;1.95;;;1.25;;
54193;SDS011;40102;50.906;6.972;2023-06-04T05:20:17;2.42;;;1.40;;
54193;SDS011;40102;50.906;6.972;2023-06-04T05:22:44;1.73;;;1.15;;
54193;SDS011;40102;50.906;6.972;2023-06-04T05:25:10;2.78;;;1.48;;
54193;SDS011;40102;50.906;6.972;2023-06-04T05:27:36;3.33;;;1.58;;
54193;SDS011;40102;50.906;6.972;2023-06-04T05:30:05;3.28;;;1.38;;
54193;SDS011;40102;50.906;6.972;2023-06-04T05:32:32;2.97;;;0.93;;
54193;SDS011;40102;50.906;6.972;2023-06-04T05:34:58;2.25;;;1.23;;
54193;SDS011;40102;50.906;6.972;2023-06-04T05:37:24;2.08;;;1.20;;
54193;SDS011;40102;50.906;6.972;2023-06-04T05:39:55;1.92;;;1.23;;
54193;SDS011;40102;50.906;6.972;2023-06-04T05:42:21;1.50;;;1.13;;
54193;SDS011;40102;50.906;6.972;2023-06-04T05:44:47;1.73;;;1.00;;
54193;SDS011;40102;50.906;6.972;2023-06-04T05:47:13;1.13;;;0.93;;
54193;SDS011;40102;50.906;6.972;2023-06-04T05:49:38;2.70;;;1.10;;
54193;SDS011;40102;50.906;6.972;2023-06-04T05:52:04;1.65;;;1.00;;
54193;SDS011;40102;50.906;6.972;2023-06-04T05:54:30;1.08;;;0.95;;
54193;SDS011;40102;50.906;6.972;2023-06-04T05:56:55;1.70;;;1.00;;
54193;SDS011;40102;50.906;6.972;2023-06-04T05:59:21;1.20;;;1.05;;
54193;SDS011;40102;50.906;6.972;2023-06-04T06:01:46;1.35;;;0.90;;
54193;SDS011;40102;50.906;6.972;2023-06-04T06:04:15;3.45;;;1.00;;
54193;SDS011;40102;50.906;6.972;2023-06-04T06:06:41;0.95;;;0.85;;
54193;SDS011;40102;50.906;6.972;2023-06-04T06:09:13;1.20;;;1.02;;
54193;SDS011;40102;50.906;6.972;2023-06-04T06:11:40;2.85;;;1.00;;
54193;SDS011;40102;50.906;6.972;2023-06-04T06:14:06;1.55;;;1.00;;
54193;SDS011;40102;50.906;6.972;2023-06-04T06:16:31;6.90;;;1.13;;
54193;SDS011;40102;50.906;6.972;2023-06-04T06:18:57;1.30;;;0.90;;
54193;SDS011;40102;50.906;6.972;2023-06-04T06:21:23;1.48;;;1.30;;
54193;SDS011;40102;50.906;6.972;2023-06-04T06:23:48;1.67;;;1.17;;
54193;SDS011;40102;50.906;6.972;2023-06-04T06:26:14;2.50;;;1.17;;
54193;SDS011;40102;50.906;6.972;2023-06-04T06:28:39;3.20;;;1.60;;
54193;SDS011;40102;50.906;6.972;2023-06-04T06:31:05;1.98;;;1.30;;
54193;SDS011;40102;50.906;6.972;2023-06-04T06:33:30;1.73;;;1.20;;
54193;SDS011;40102;50.906;6.972;2023-06-04T06:35:56;1.98;;;1.25;;
54193;SDS011;40102;50.906;6.972;2023-06-04T06:38:25;1.45;;;1.15;;
54193;SDS011;40102;50.906;6.972;2023-06-04T06:40:51;1.77;;;0.82;;
54193;SDS011;40102;50.906;6.972;2023-06-04T06:43:17;1.10;;;1.00;;
54193;SDS011;40102;50.906;6.972;2023-06-04T06:45:42;0.95;;;0.82;;
54193;SDS011;40102;50.906;6.972;2023-06-04T06:48:08;1.35;;;1.02;;
54193;SDS011;40102;50.906;6.972;2023-06-04T06:50:33;2.10;;;1.10;;
54193;SDS011;40102;50.906;6.972;2023-06-04T06:53:01;1.48;;;1.10;;
54193;SDS011;40102;50.906;6.972;2023-06-04T06:55:27;1.60;;;1.00;;
54193;SDS011;40102;50.906;6.972;2023-06-04T06:57:52;1.60;;;1.10;;
54193;SDS011;40102;50.906;6.972;2023-06-04T07:00:17;2.38;;;0.90;;
54193;SDS011;40102;50.906;6.972;2023-06-04T07:02:43;1.63;;;1.10;;
54193;SDS011;40102;50.906;6.972;2023-06-04T07:05:10;1.25;;;0.95;;
54193;SDS011;40102;50.906;6.972;2023-06-04T07:07:36;1.25;;;0.90;;
54193;SDS011;40102;50.906;6.972;2023-06-04T07:10:01;1.15;;;0.90;;
54193;SDS011;40102;50.906;6.972;2023-06-04T07:12:29;1.60;;;1.17;;
54193;SDS011;40102;50.906;6.972;2023-06-04T07:14:54;1.00;;;0.88;;
54193;SDS011;40102;50.906;6.972;2023-06-04T07:17:21;1.25;;;0.95;;
54193;SDS011;40102;50.906;6.972;2023-06-04T07:19:46;1.23;;;0.85;;
54193;SDS011;40102;50.906;6.972;2023-06-04T07:22:12;1.90;;;1.30;;
54193;SDS011;40102;50.906;6.972;2023-06-04T07:24:40;1.70;;;1.00;;
54193;SDS011;40102;50.906;6.972;2023-06-04T07:27:12;2.10;;;1.08;;
54193;SDS011;40102;50.906;6.972;2023-06-04T07:29:39;1.20;;;1.10;;
54193;SDS011;40102;50.906;6.972;2023-06-04T07:32:05;2.00;;;1.17;;
54193;SDS011;40102;50.906;6.972;2023-06-04T07:34:31;1.55;;;0.90;;
54193;SDS011;40102;50.906;6.972;2023-06-04T07:36:57;1.63;;;1.20;;
54193;SDS011;40102;50.906;6.972;2023-06-04T07:39:22;2.78;;;1.42;;
54193;SDS011;40102;50.906;6.972;2023-06-04T07:41:47;1.67;;;1.30;;
54193;SDS011;40102;50.906;6.972;2023-06-04T07:44:13;2.10;;;1.40;;
54193;SDS011;40102;50.906;6.972;2023-06-04T07:46:38;1.60;;;1.00;;
54193;SDS011;40102;50.906;6.972;2023-06-04T07:49:04;4.25;;;1.33;;
54193;SDS011;40102;50.906;6.972;2023-06-04T07:51:29;1.52;;;1.20;;
54193;SDS011;40102;50.906;6.972;2023-06-04T07:53:54;1.90;;;1.20;;
54193;SDS011;40102;50.906;6.972;2023-06-04T07:56:20;1.20;;;1.00;;
54193;SDS011;40102;50.906;6.972;2023-06-04T07:58:46;1.60;;;1.10;;
54193;SDS011;40102;50.906;6.972;2023-06-04T08:01:11;2.08;;;1.20;;
54193;SDS011;40102;50.906;6.972;2023-06-04T08:03:37;1.95;;;1.10;;
54193;SDS011;40102;50.906;6.972;2023-06-04T08:06:03;1.70;;;1.20;;
54193;SDS011;40102;50.906;6.972;2023-06-04T08:08:28;2.35;;;1.33;;
54193;SDS011;40102;50.906;6.972;2023-06-04T08:10:54;5.07;;;1.70;;
54193;SDS011;40102;50.906;6.972;2023-06-04T08:13:19;1.98;;;1.35;;
54193;SDS011;40102;50.906;6.972;2023-06-04T08:15:45;1.30;;;1.17;;
54193;SDS011;40102;50.906;6.972;2023-06-04T08:18:11;2.13;;;1.40;;
54193;SDS011;40102;50.906;6.972;2023-06-04T08:20:36;2.55;;;1.08;;
54193;SDS011;40102;50.906;6.972;2023-06-04T08:23:02;2.65;;;1.30;;
54193;SDS011;40102;50.906;6.972;2023-06-04T08:25:27;1.80;;;1.30;;
54193;SDS011;40102;50.906;6.972;2023-06-04T08:27:55;1.35;;;1.10;;
54193;SDS011;40102;50.906;6.972;2023-06-04T08:30:21;2.78;;;1.48;;
54193;SDS011;40102;50.906;6.972;2023-06-04T08:32:46;2.25;;;1.20;;
54193;SDS011;40102;50.906;6.972;2023-06-04T08:35:12;2.58;;;1.50;;
54193;SDS011;40102;50.906;6.972;2023-06-04T08:37:37;1.90;;;1.25;;
54193;SDS011;40102;50.906;6.972;2023-06-04T08:40:02;1.90;;;1.25;;
54193;SDS011;40102;50.906;6.972;2023-06-04T08:42:30;2.95;;;1.27;;
54193;SDS011;40102;50.906;6.972;2023-06-04T08:44:59;3.00;;;2.25;;
54193;SDS011;40102;50.906;6.972;2023-06-04T08:47:25;1.80;;;1.15;;
54193;SDS011;40102;50.906;6.972;2023-06-04T08:49:51;3.08;;;1.00;;
54193;SDS011;40102;50.906;6.972;2023-06-04T08:52:17;2.75;;;1.10;;
54193;SDS011;40102;50.906;6.972;2023-06-04T08:54:47;1.95;;;1.08;;
54193;SDS011;40102;50.906;6.972;2023-06-04T08:57:16;2.22;;;1.00;;
54193;SDS011;40102;50.906;6.972;2023-06-04T08:59:44;1.80;;;1.17;;
54193;SDS011;40102;50.906;6.972;2023-06-04T09:02:11;2.80;;;1.00;;
54193;SDS011;40102;50.906;6.972;2023-06-04T09:04:39;1.92;;;1.20;;
54193;SDS011;40102;50.906;6.972;2023-06-04T09:07:05;3.83;;;0.98;;
54193;SDS011;40102;50.906;6.972;2023-06-04T09:09:35;6.28;;;1.00;;
54193;SDS011;40102;50.906;6.972;2023-06-04T09:12:03;1.40;;;1.10;;
54193;SDS011;40102;50.906;6.972;2023-06-04T09:14:31;2.25;;;1.00;;
54193;SDS011;40102;50.906;6.972;2023-06-04T09:16:56;2.00;;;1.30;;
54193;SDS011;40102;50.906;6.972;2023-06-04T09:19:24;1.98;;;1.20;;
54193;SDS011;40102;50.906;6.972;2023-06-04T09:24:20;1.27;;;0.90;;
54193;SDS011;40102;50.906;6.972;2023-06-04T09:26:46;1.98;;;0.95;;
54193;SDS011;40102;50.906;6.972;2023-06-04T09:29:12;1.70;;;1.05;;
54193;SDS011;40102;50.906;6.972;2023-06-04T09:31:38;1.85;;;1.02;;
54193;SDS011;40102;50.906;6.972;2023-06-04T09:34:08;1.98;;;0.90;;
54193;SDS011;40102;50.906;6.972;2023-06-04T09:36:33;2.65;;;0.95;;
54193;SDS011;40102;50.906;6.972;2023-06-04T09:39:00;4.15;;;1.20;;
54193;SDS011;40102;50.906;6.972;2023-06-04T09:41:27;2.95;;;0.93;;
54193;SDS011;40102;50.906;6.972;2023-06-04T09:44:00;1.42;;;1.08;;
54193;SDS011;40102;50.906;6.972;2023-06-04T09:46:30;2.40;;;1.08;;
54193;SDS011;40102;50.906;6.972;2023-06-04T09:49:00;2.20;;;0.90;;
54193;SDS011;40102;50.906;6.972;2023-06-04T09:51:28;3.10;;;0.80;;
54193;SDS011;40102;50.906;6.972;2023-06-04T09:53:54;1.42;;;1.08;;
54193;SDS011;40102;50.906;6.972;2023-06-04T09:56:24;1.00;;;0.90;;
54193;SDS011;40102;50.906;6.972;2023-06-04T09:58:53;3.03;;;1.10;;
54193;SDS011;40102;50.906;6.972;2023-06-04T10:01:21;1.65;;;1.13;;
54193;SDS011;40102;50.906;6.972;2023-06-04T10:03:49;2.25;;;1.00;;
54193;SDS011;40102;50.906;6.972;2023-06-04T10:06:16;2.88;;;0.93;;
54193;SDS011;40102;50.906;6.972;2023-06-04T10:08:45;1.83;;;0.90;;
54193;SDS011;40102;50.906;6.972;2023-06-04T10:11:11;2.00;;;1.02;;
54193;SDS011;40102;50.906;6.972;2023-06-04T10:13:43;2.45;;;1.20;;
54193;SDS011;40102;50.906;6.972;2023-06-04T10:16:20;1.25;;;0.85;;
54193;SDS011;40102;50.906;6.972;2023-06-04T10:18:48;4.43;;;1.52;;
54193;SDS011;40102;50.906;6.972;2023-06-04T10:21:15;1.83;;;1.02;;
54193;SDS011;40102;50.906;6.972;2023-06-04T10:23:43;2.45;;;0.98;;
54193;SDS011;40102;50.906;6.972;2023-06-04T10:26:10;3.85;;;1.33;;
54193;SDS011;40102;50.906;6.972;2023-06-04T10:28:40;2.08;;;1.30;;
54193;SDS011;40102;50.906;6.972;2023-06-04T10:31:06;3.00;;;1.05;;
54193;SDS011;40102;50.906;6.972;2023-06-04T10:33:31;2.15;;;1.20;;
54193;SDS011;40102;50.906;6.972;2023-06-04T10:35:56;1.60;;;0.88;;
54193;SDS011;40102;50.906;6.972;2023-06-04T10:38:22;1.48;;;1.00;;
54193;SDS011;40102;50.906;6.972;2023-06-04T10:40:47;4.50;;;0.95;;
54193;SDS011;40102;50.906;6.972;2023-06-04T10:43:14;1.83;;;1.00;;
54193;SDS011;40102;50.906;6.972;2023-06-04T10:45:44;2.17;;;1.15;;
54193;SDS011;40102;50.906;6.972;2023-06-04T10:48:10;1.63;;;1.02;;
54193;SDS011;40102;50.906;6.972;2023-06-04T10:50:49;1.60;;;1.10;;
54193;SDS011;40102;50.906;6.972;2023-06-04T10:53:16;2.80;;;1.05;;
54193;SDS011;40102;50.906;6.972;2023-06-04T10:55:44;2.67;;;1.27;;
54193;SDS011;40102;50.906;6.972;2023-06-04T11:00:39;1.20;;;0.80;;
54193;SDS011;40102;50.906;6.972;2023-06-04T11:03:06;1.23;;;0.90;;
54193;SDS011;40102;50.906;6.972;2023-06-04T11:05:42;2.13;;;1.00;;
54193;SDS011;40102;50.906;6.972;2023-06-04T11:08:10;3.53;;;1.30;;
54193;SDS011;40102;50.906;6.972;2023-06-04T11:10:38;1.38;;;0.88;;
54193;SDS011;40102;50.906;6.972;2023-06-04T11:13:05;1.10;;;0.80;;
54193;SDS011;40102;50.906;6.972;2023-06-04T11:15:40;2.63;;;1.00;;
54193;SDS011;40102;50.906;6.972;2023-06-04T11:18:07;1.20;;;0.80;;
54193;SDS011;40102;50.906;6.972;2023-06-04T11:20:32;2.33;;;1.10;;
54193;SDS011;40102;50.906;6.972;2023-06-04T11:22:58;2.13;;;0.80;;
54193;SDS011;40102;50.906;6.972;2023-06-04T11:25:28;4.45;;;1.00;;
54193;SDS011;40102;50.906;6.972;2023-06-04T11:27:56;1.95;;;0.90;;
54193;SDS011;40102;50.906;6.972;2023-06-04T11:30:22;1.77;;;1.10;;
54193;SDS011;40102;50.906;6.972;2023-06-04T11:32:49;2.53;;;1.35;;
54193;SDS011;40102;50.906;6.972;2023-06-04T11:35:15;4.53;;;1.20;;
54193;SDS011;40102;50.906;6.972;2023-06-04T11:37:40;2.42;;;1.15;;
54193;SDS011;40102;50.906;6.972;2023-06-04T11:40:19;1.77;;;1.00;;
54193;SDS011;40102;50.906;6.972;2023-06-04T11:42:45;1.30;;;0.95;;
54193;SDS011;40102;50.906;6.972;2023-06-04T11:45:15;3.17;;;0.95;;
54193;SDS011;40102;50.906;6.972;2023-06-04T11:47:49;1.75;;;0.98;;
54193;SDS011;40102;50.906;6.972;2023-06-04T11:50:19;4.07;;;1.20;;
54193;SDS011;40102;50.906;6.972;2023-06-04T11:52:45;1.67;;;1.00;;
54193;SDS011;40102;50.906;6.972;2023-06-04T11:55:12;3.28;;;1.00;;
54193;SDS011;40102;50.906;6.972;2023-06-04T11:57:38;5.53;;;0.95;;
54193;SDS011;40102;50.906;6.972;2023-06-04T12:00:05;1.48;;;0.90;;
54193;SDS011;40102;50.906;6.972;2023-06-04T12:02:37;1.05;;;0.90;;
54193;SDS011;40102;50.906;6.972;2023-06-04T12:05:15;8.70;;;1.10;;
54193;SDS011;40102;50.906;6.972;2023-06-04T12:07:45;1.52;;;0.90;;
54193;SDS011;40102;50.906;6.972;2023-06-04T12:10:12;4.20;;;1.00;;
54193;SDS011;40102;50.906;6.972;2023-06-04T12:12:38;2.53;;;0.90;;
54193;SDS011;40102;50.906;6.972;2023-06-04T12:15:05;3.85;;;1.10;;
54193;SDS011;40102;50.906;6.972;2023-06-04T12:17:32;2.15;;;1.00;;
54193;SDS011;40102;50.906;6.972;2023-06-04T12:19:58;2.38;;;1.23;;
54193;SDS011;40102;50.906;6.972;2023-06-04T12:22:24;2.63;;;0.90;;
54193;SDS011;40102;50.906;6.972;2023-06-04T12:24:51;2.88;;;1.20;;
54193;SDS011;40102;50.906;6.972;2023-06-04T12:27:21;4.15;;;1.10;;
54193;SDS011;40102;50.906;6.972;2023-06-04T12:32:29;1.30;;;1.00;;
54193;SDS011;40102;50.906;6.972;2023-06-04T12:34:55;3.50;;;1.05;;
54193;SDS011;40102;50.906;6.972;2023-06-04T12:37:21;1.95;;;0.95;;
54193;SDS011;40102;50.906;6.972;2023-06-04T12:39:47;1.80;;;0.85;;
54193;SDS011;40102;50.906;6.972;2023-06-04T12:42:12;3.17;;;1.00;;
54193;SDS011;40102;50.906;6.972;2023-06-04T12:44:41;3.08;;;1.10;;
54193;SDS011;40102;50.906;6.972;2023-06-04T12:47:07;2.08;;;1.08;;
54193;SDS011;40102;50.906;6.972;2023-06-04T12:49:33;1.40;;;0.93;;
54193;SDS011;40102;50.906;6.972;2023-06-04T12:51:59;2.22;;;1.15;;
54193;SDS011;40102;50.906;6.972;2023-06-04T12:54:25;3.17;;;0.90;;
54193;SDS011;40102;50.906;6.972;2023-06-04T12:56:52;4.63;;;0.95;;
54193;SDS011;40102;50.906;6.972;2023-06-04T12:59:18;3.30;;;1.20;;
54193;SDS011;40102;50.906;6.972;2023-06-04T13:01:43;2.08;;;1.05;;
54193;SDS011;40102;50.906;6.972;2023-06-04T13:04:08;2.15;;;1.20;;
54193;SDS011;40102;50.906;6.972;2023-06-04T13:06:34;2.17;;;0.88;;
54193;SDS011;40102;50.906;6.972;2023-06-04T13:09:03;1.40;;;0.95;;
54193;SDS011;40102;50.906;6.972;2023-06-04T13:11:35;3.25;;;1.15;;
54193;SDS011;40102;50.906;6.972;2023-06-04T13:14:04;1.50;;;1.10;;
54193;SDS011;40102;50.906;6.972;2023-06-04T13:16:29;1.75;;;1.00;;
54193;SDS011;40102;50.906;6.972;2023-06-04T13:18:55;4.35;;;1.42;;
54193;SDS011;40102;50.906;6.972;2023-06-04T13:21:20;3.42;;;1.10;;
54193;SDS011;40102;50.906;6.972;2023-06-04T13:23:45;2.97;;;1.20;;
54193;SDS011;40102;50.906;6.972;2023-06-04T13:26:11;1.92;;;1.00;;
54193;SDS011;40102;50.906;6.972;2023-06-04T13:28:37;1.77;;;1.10;;
54193;SDS011;40102;50.906;6.972;2023-06-04T13:31:03;2.28;;;0.90;;
54193;SDS011;40102;50.906;6.972;2023-06-04T13:33:28;3.10;;;1.13;;
54193;SDS011;40102;50.906;6.972;2023-06-04T13:35:54;2.03;;;1.20;;
54193;SDS011;40102;50.906;6.972;2023-06-04T13:38:20;1.67;;;1.00;;
54193;SDS011;40102;50.906;6.972;2023-06-04T13:40:45;2.47;;;1.10;;
54193;SDS011;40102;50.906;6.972;2023-06-04T13:43:10;1.25;;;0.90;;
54193;SDS011;40102;50.906;6.972;2023-06-04T13:45:36;2.03;;;1.20;;
54193;SDS011;40102;50.906;6.972;2023-06-04T13:48:01;3.80;;;1.13;;
54193;SDS011;40102;50.906;6.972;2023-06-04T13:50:31;1.38;;;0.75;;
54193;SDS011;40102;50.906;6.972;2023-06-04T13:52:56;3.50;;;1.00;;
54193;SDS011;40102;50.906;6.972;2023-06-04T13:55:22;3.83;;;0.95;;
54193;SDS011;40102;50.906;6.972;2023-06-04T13:57:47;3.03;;;1.20;;
54193;SDS011;40102;50.906;6.972;2023-06-04T14:00:13;2.00;;;0.95;;
54193;SDS011;40102;50.906;6.972;2023-06-04T14:02:40;1.83;;;1.10;;
54193;SDS011;40102;50.906;6.972;2023-06-04T14:05:06;2.38;;;1.10;;
54193;SDS011;40102;50.906;6.972;2023-06-04T14:07:31;2.63;;;1.10;;
54193;SDS011;40102;50.906;6.972;2023-06-04T14:09:57;2.17;;;1.08;;
54193;SDS011;40102;50.906;6.972;2023-06-04T14:12:23;1.80;;;1.10;;
54193;SDS011;40102;50.906;6.972;2023-06-04T14:14:48;1.42;;;0.95;;
54193;SDS011;40102;50.906;6.972;2023-06-04T14:17:14;1.40;;;0.90;;
54193;SDS011;40102;50.906;6.972;2023-06-04T14:19:39;1.05;;;0.90;;
54193;SDS011;40102;50.906;6.972;2023-06-04T14:22:05;2.13;;;1.00;;
54193;SDS011;40102;50.906;6.972;2023-06-04T14:24:30;2.03;;;1.20;;
54193;SDS011;40102;50.906;6.972;2023-06-04T14:26:56;10.85;;;1.73;;
54193;SDS011;40102;50.906;6.972;2023-06-04T14:29:21;1.08;;;0.90;;
54193;SDS011;40102;50.906;6.972;2023-06-04T14:31:47;1.27;;;0.93;;
54193;SDS011;40102;50.906;6.972;2023-06-04T14:34:12;3.88;;;1.33;;
54193;SDS011;40102;50.906;6.972;2023-06-04T14:36:37;1.92;;;1.27;;
54193;SDS011;40102;50.906;6.972;2023-06-04T14:39:03;2.10;;;1.10;;
54193;SDS011;40102;50.906;6.972;2023-06-04T14:41:28;1.98;;;1.50;;
54193;SDS011;40102;50.906;6.972;2023-06-04T14:43:55;4.85;;;1.17;;
54193;SDS011;40102;50.906;6.972;2023-06-04T14:46:21;1.67;;;1.30;;
54193;SDS011;40102;50.906;6.972;2023-06-04T14:48:46;3.95;;;1.30;;
54193;SDS011;40102;50.906;6.972;2023-06-04T14:51:11;4.57;;;1.25;;
54193;SDS011;40102;50.906;6.972;2023-06-04T14:53:37;2.05;;;1.38;;
54193;SDS011;40102;50.906;6.972;2023-06-04T14:56:06;1.48;;;1.13;;
54193;SDS011;40102;50.906;6.972;2023-06-04T14:58:31;4.28;;;1.10;;
54193;SDS011;40102;50.906;6.972;2023-06-04T15:00:58;2.50;;;1.20;;